Terminal Aerodrome Forecast
Issued by NWS

Home | Current Version | Previous Version | Text Only | Print | Product List | Glossary On
Versions: 1 2 3 4 5 6 7 8 9 10 11 12 13 14 15 16 17 18 19
000
FTUS43 KABR 300520
TAFMBG
TAF
KMBG 300520Z 3006/3106 13004KT P6SM SKC
     FM301500 14011KT P6SM SCT120
     FM301900 15013KT P6SM -SHRA VCTS SCT070 BKN090CB
     FM310000 36008KT P6SM OVC080
     FM310500 30007KT P6SM BKN150=

USA.gov is the U.S. government's official web portal to all federal, state and local government web resources and services.